createdAt,value
2022-08-07T00:02:35.536Z,84.32
2022-08-07T00:04:01.199Z,83.96
2022-08-07T00:06:33.473Z,83.67
2022-08-07T00:09:17.054Z,83.48
2022-08-07T00:11:55.510Z,83.04
2022-08-07T00:14:31.462Z,83.21
2022-08-07T00:17:02.705Z,83.38
2022-08-07T00:20:00.259Z,83.68
2022-08-07T00:22:34.578Z,83.93
2022-08-07T00:25:07.384Z,84.26
2022-08-07T00:27:53.465Z,83.91
2022-08-07T00:30:27.590Z,84.72
2022-08-07T00:32:59.891Z,84.65
2022-08-07T00:35:30.042Z,85.01
2022-08-07T00:38:01.061Z,85.21
2022-08-07T00:40:40.079Z,85.09
2022-08-07T00:43:58.702Z,84.92
2022-08-07T00:46:00.302Z,84.58
2022-08-07T00:48:31.854Z,85.08
2022-08-07T00:51:01.077Z,84.97
2022-08-07T00:53:39.339Z,84.73
2022-08-07T00:56:15.683Z,86.83
2022-08-07T00:58:46.569Z,86.96
2022-08-07T01:01:15.143Z,86.07
2022-08-07T01:03:56.120Z,85.74
2022-08-07T01:06:30.027Z,85.67
2022-08-07T01:09:00.799Z,85.40
2022-08-07T01:12:23.740Z,86.24
2022-08-07T01:14:16.889Z,86.89
2022-08-07T01:16:46.854Z,87.09
2022-08-07T01:19:19.043Z,87.31
2022-08-07T01:21:48.309Z,86.57
2022-08-07T01:24:18.755Z,86.41
2022-08-07T01:26:51.640Z,86.61
2022-08-07T01:29:19.812Z,85.64
2022-08-07T01:31:48.635Z,85.51
2022-08-07T01:34:15.654Z,85.18
2022-08-07T01:36:44.108Z,85.26
2022-08-07T01:39:11.836Z,85.34
2022-08-07T01:42:07.134Z,84.94
2022-08-07T01:44:27.781Z,85.07
2022-08-07T01:46:54.662Z,85.01
2022-08-07T01:49:22.311Z,84.95
2022-08-07T01:52:04.170Z,84.91
2022-08-07T01:54:36.960Z,85.43
2022-08-07T01:57:24.119Z,85.90
2022-08-07T02:00:02.137Z,85.90
2022-08-07T02:03:15.952Z,85.73
2022-08-07T02:05:43.072Z,86.41
2022-08-07T02:08:19.234Z,86.16
2022-08-07T02:10:55.296Z,87.14
2022-08-07T02:13:58.245Z,87.79
2022-08-07T02:16:16.045Z,87.27
2022-08-07T02:18:47.279Z,87.54
2022-08-07T02:21:16.609Z,87.09
2022-08-07T02:23:45.065Z,87.17
2022-08-07T02:26:33.865Z,86.58
2022-08-07T02:29:03.146Z,86.66
2022-08-07T02:31:32.573Z,87.11
2022-08-07T02:34:03.274Z,86.61
2022-08-07T02:36:33.796Z,86.89
2022-08-07T02:39:09.441Z,86.70
2022-08-07T02:41:47.365Z,86.92
2022-08-07T02:44:21.432Z,86.86
2022-08-07T02:46:52.506Z,86.43
2022-08-07T02:49:56.183Z,87.46
2022-08-07T02:52:10.130Z,88.24
2022-08-07T02:54:42.763Z,87.60
2022-08-07T02:57:14.304Z,87.54
2022-08-07T02:59:45.660Z,86.55
2022-08-07T03:02:22.731Z,86.91
2022-08-07T03:04:51.847Z,86.52
2022-08-07T03:07:21.574Z,85.42
2022-08-07T03:10:08.928Z,85.89
2022-08-07T03:12:37.221Z,85.76
2022-08-07T03:15:07.802Z,85.32
2022-08-07T03:17:53.785Z,84.65
2022-08-07T03:20:22.165Z,84.08
2022-08-07T03:22:50.759Z,83.59
2022-08-07T03:25:21.156Z,83.28
2022-08-07T03:27:59.400Z,83.33
2022-08-07T03:30:37.476Z,83.37
2022-08-07T03:33:08.530Z,83.19
2022-08-07T03:35:50.037Z,82.78
2022-08-07T03:38:21.197Z,83.00
2022-08-07T03:40:57.727Z,82.95
2022-08-07T03:43:26.679Z,83.09
2022-08-07T03:46:00.135Z,83.00
2022-08-07T03:48:31.980Z,83.17
2022-08-07T03:51:02.003Z,83.03
2022-08-07T03:54:01.923Z,83.25
2022-08-07T03:56:32.719Z,83.04
2022-08-07T03:59:08.138Z,82.84
2022-08-07T04:01:43.091Z,83.00
2022-08-07T04:04:13.630Z,82.97
2022-08-07T04:06:45.385Z,83.04
2022-08-07T04:09:15.363Z,83.70
2022-08-07T04:12:28.182Z,83.74
2022-08-07T04:14:38.925Z,83.61
2022-08-07T04:17:20.478Z,83.29
2022-08-07T04:19:54.024Z,82.96
2022-08-07T04:22:28.685Z,85.73
2022-08-07T04:24:58.548Z,84.50
2022-08-07T04:27:26.667Z,83.84
2022-08-07T04:30:01.349Z,83.75
2022-08-07T04:32:34.364Z,83.05
2022-08-07T04:35:07.223Z,82.87
2022-08-07T04:37:52.705Z,82.59
2022-08-07T04:40:29.838Z,85.04
2022-08-07T04:43:02.085Z,86.46
2022-08-07T04:45:57.581Z,85.57
2022-08-07T04:48:40.548Z,84.23
2022-08-07T04:51:31.990Z,82.64
2022-08-07T04:54:36.881Z,83.55
2022-08-07T04:58:13.692Z,83.69
2022-08-07T05:00:14.556Z,84.19
2022-08-07T05:03:59.776Z,83.71
2022-08-07T05:06:20.094Z,83.32
2022-08-07T05:09:46.355Z,82.66
2022-08-07T05:12:26.794Z,82.38
2022-08-07T05:15:21.685Z,81.80
2022-08-07T05:17:57.062Z,80.94
2022-08-07T05:20:33.678Z,79.80
2022-08-07T05:23:07.121Z,78.76
2022-08-07T05:26:13.606Z,78.36
2022-08-07T05:28:34.498Z,77.46
2022-08-07T05:31:03.658Z,76.84
2022-08-07T05:33:35.574Z,76.30
2022-08-07T05:36:07.001Z,75.75
2022-08-07T05:39:01.140Z,75.64
2022-08-07T05:42:02.207Z,74.25
2022-08-07T05:44:17.231Z,72.60
2022-08-07T05:46:56.640Z,72.52
2022-08-07T05:49:23.775Z,71.24
2022-08-07T05:51:50.455Z,70.40
2022-08-07T05:54:30.091Z,69.42
2022-08-07T05:56:59.057Z,70.03
2022-08-07T05:59:27.393Z,68.42
2022-08-07T06:01:55.751Z,67.33
2022-08-07T06:04:30.032Z,65.42
2022-08-07T06:07:03.651Z,64.12
2022-08-07T06:10:03.833Z,60.41
2022-08-07T06:12:21.145Z,57.16
2022-08-07T06:15:05.614Z,54.18
2022-08-07T06:17:37.621Z,52.20
2022-08-07T06:20:06.117Z,52.43
2022-08-07T06:22:44.599Z,52.79
2022-08-07T06:25:28.854Z,51.47
2022-08-07T06:28:10.176Z,52.35
2022-08-07T06:30:45.873Z,49.75
2022-08-07T06:33:16.534Z,50.12
2022-08-07T06:35:48.148Z,49.99
2022-08-07T06:38:30.853Z,49.63
2022-08-07T06:41:01.124Z,47.36
2022-08-07T06:43:39.633Z,47.60
2022-08-07T06:46:13.445Z,46.06
2022-08-07T06:48:42.142Z,47.44
2022-08-07T06:51:31.341Z,50.43
2022-08-07T06:55:29.695Z,50.13
2022-08-07T06:56:54.292Z,50.68
2022-08-07T07:00:13.502Z,50.19
2022-08-07T07:02:48.223Z,52.02
2022-08-07T07:05:12.902Z,50.73
2022-08-07T07:07:59.982Z,54.62
2022-08-07T07:10:33.315Z,48.94
2022-08-07T07:13:10.026Z,47.43
2022-08-07T07:15:44.515Z,49.60
2022-08-07T07:18:47.059Z,48.47
2022-08-07T07:21:27.077Z,45.93
2022-08-07T07:24:12.668Z,45.78
2022-08-07T07:26:52.009Z,40.91
2022-08-07T07:29:55.757Z,40.14
2022-08-07T07:32:12.974Z,39.34
2022-08-07T07:34:45.969Z,41.09
2022-08-07T07:37:44.417Z,38.34
2022-08-07T07:40:10.174Z,33.77
2022-08-07T07:42:47.032Z,36.17
2022-08-07T07:45:24.511Z,35.21
2022-08-07T07:48:11.246Z,33.14
2022-08-07T07:50:40.318Z,32.32
2022-08-07T07:53:20.455Z,30.33
2022-08-07T07:55:57.884Z,31.52
2022-08-07T07:58:37.075Z,33.90
2022-08-07T08:02:01.737Z,32.39
2022-08-07T08:04:10.704Z,32.83
2022-08-07T08:06:51.148Z,35.62
2022-08-07T08:09:23.211Z,36.04
2022-08-07T08:12:01.871Z,37.92
2022-08-07T08:14:31.704Z,32.91
2022-08-07T08:17:55.676Z,33.26
2022-08-07T08:20:17.252Z,36.04
2022-08-07T08:23:01.718Z,34.78
2022-08-07T08:25:50.918Z,35.71
2022-08-07T08:28:23.974Z,38.42
2022-08-07T08:31:15.621Z,36.87
2022-08-07T08:33:49.330Z,35.64
2022-08-07T08:36:30.080Z,38.14
2022-08-07T08:39:02.160Z,32.96
2022-08-07T08:41:58.510Z,38.96
2022-08-07T08:44:44.343Z,34.15
2022-08-07T08:47:17.437Z,31.79
2022-08-07T08:50:05.148Z,33.02
2022-08-07T08:52:53.928Z,32.44
2022-08-07T08:55:55.429Z,36.77
2022-08-07T08:58:39.766Z,38.86
2022-08-07T09:01:29.813Z,39.33
2022-08-07T09:04:18.854Z,40.40
2022-08-07T09:07:03.342Z,37.87
2022-08-07T09:09:49.067Z,35.66
2022-08-07T09:13:01.504Z,35.14
2022-08-07T09:16:20.055Z,32.52
2022-08-07T09:18:47.317Z,31.78
2022-08-07T09:21:34.220Z,29.25
2022-08-07T09:24:30.559Z,31.49
2022-08-07T09:27:29.701Z,29.43
2022-08-07T09:30:09.347Z,34.30
2022-08-07T09:33:05.231Z,33.94
2022-08-07T09:36:09.651Z,30.45
2022-08-07T09:38:59.956Z,27.93
2022-08-07T09:41:58.555Z,33.06
2022-08-07T09:47:52.418Z,31.14
2022-08-07T09:48:06.324Z,28.14
2022-08-07T09:52:16.189Z,30.37
2022-08-07T09:54:08.252Z,33.25
2022-08-07T09:57:13.001Z,34.78
2022-08-07T10:00:14.553Z,35.19
2022-08-07T10:02:55.660Z,33.88
2022-08-07T10:05:58.223Z,31.06
2022-08-07T10:08:46.093Z,33.29
2022-08-07T10:12:02.433Z,32.11
2022-08-07T10:14:54.349Z,31.61
2022-08-07T10:18:00.309Z,31.29
2022-08-07T10:20:50.177Z,36.92
2022-08-07T10:24:06.480Z,32.78
2022-08-07T10:26:54.194Z,36.77
2022-08-07T10:29:58.585Z,36.60
2022-08-07T10:32:59.784Z,37.46
2022-08-07T10:36:11.420Z,34.70
2022-08-07T10:39:10.837Z,31.78
2022-08-07T10:41:53.281Z,29.71
2022-08-07T10:44:54.693Z,30.56
2022-08-07T10:47:52.545Z,33.45
2022-08-07T10:50:35.443Z,32.44
2022-08-07T10:53:27.581Z,33.06
2022-08-07T10:56:31.205Z,32.52
2022-08-07T10:59:47.589Z,33.95
2022-08-07T11:02:34.092Z,32.17
2022-08-07T11:05:13.700Z,38.48
2022-08-07T11:07:58.527Z,37.32
2022-08-07T11:10:39.777Z,36.12
2022-08-07T11:14:45.087Z,34.95
2022-08-07T11:16:30.815Z,38.46
2022-08-07T11:19:21.754Z,37.96
2022-08-07T11:22:26.593Z,37.16
2022-08-07T11:25:20.293Z,36.97
2022-08-07T11:28:08.624Z,36.70
2022-08-07T11:30:48.040Z,36.44
2022-08-07T11:33:59.450Z,38.78
2022-08-07T11:36:39.292Z,37.72
2022-08-07T11:39:10.071Z,41.28
2022-08-07T11:42:08.496Z,41.35
2022-08-07T11:45:05.461Z,38.56
2022-08-07T11:48:13.854Z,37.63
2022-08-07T11:50:59.565Z,38.18
2022-08-07T11:54:01.600Z,37.54
2022-08-07T11:56:56.387Z,42.04
2022-08-07T12:00:12.466Z,37.71
2022-08-07T12:03:41.403Z,37.17
2022-08-07T12:06:50.261Z,36.04
2022-08-07T12:09:35.505Z,38.40
2022-08-07T12:12:25.897Z,39.34
2022-08-07T12:15:17.043Z,39.67
2022-08-07T12:18:29.933Z,38.11
2022-08-07T12:22:35.657Z,41.16
2022-08-07T12:24:38.431Z,39.96
2022-08-07T12:27:16.183Z,38.72
2022-08-07T12:30:04.060Z,39.03
2022-08-07T12:32:42.093Z,38.29
2022-08-07T12:35:13.499Z,37.72
2022-08-07T12:38:09.784Z,37.58
2022-08-07T12:40:48.882Z,36.72
2022-08-07T12:44:03.011Z,35.65
2022-08-07T12:46:26.417Z,36.46
2022-08-07T12:49:51.048Z,40.08
2022-08-07T12:52:46.340Z,36.98
2022-08-07T12:55:40.726Z,36.21
2022-08-07T12:58:12.961Z,35.95
2022-08-07T13:01:00.083Z,36.51
2022-08-07T13:03:54.775Z,37.50
2022-08-07T13:06:58.873Z,36.06
2022-08-07T13:10:29.140Z,36.11
2022-08-07T13:13:10.931Z,37.48
2022-08-07T13:15:58.801Z,36.52
2022-08-07T13:18:57.095Z,38.53
2022-08-07T13:21:51.743Z,37.49
2022-08-07T13:24:35.296Z,35.47
2022-08-07T13:27:15.686Z,35.21
2022-08-07T13:30:03.591Z,37.31
2022-08-07T13:32:54.051Z,36.61
2022-08-07T13:36:00.436Z,36.54
2022-08-07T13:38:37.923Z,40.01
2022-08-07T13:41:25.601Z,38.86
2022-08-07T13:44:00.284Z,39.19
2022-08-07T13:46:36.559Z,36.82
2022-08-07T13:49:08.768Z,35.49
2022-08-07T13:52:22.661Z,35.55
2022-08-07T13:54:49.280Z,36.60
2022-08-07T13:57:32.049Z,38.01
2022-08-07T14:00:02.023Z,37.28
2022-08-07T14:02:49.500Z,36.44
2022-08-07T14:05:25.259Z,36.37
2022-08-07T14:08:06.100Z,36.77
2022-08-07T14:10:42.057Z,36.69
2022-08-07T14:13:33.639Z,37.50
2022-08-07T14:16:04.708Z,36.53
2022-08-07T14:18:50.003Z,36.63
2022-08-07T14:22:41.208Z,36.80
2022-08-07T14:24:28.079Z,37.75
2022-08-07T14:26:58.573Z,37.54
2022-08-07T14:30:07.446Z,36.07
2022-08-07T14:32:24.895Z,36.91
2022-08-07T14:34:53.380Z,35.80
2022-08-07T14:37:23.860Z,35.41
2022-08-07T14:43:57.075Z,35.98
2022-08-07T14:45:56.524Z,35.04
2022-08-07T14:48:28.809Z,34.54
2022-08-07T14:51:01.807Z,35.37
2022-08-07T14:54:08.981Z,36.42
2022-08-07T14:56:30.224Z,35.45
2022-08-07T14:59:02.685Z,35.54
2022-08-07T15:01:50.873Z,35.64
2022-08-07T15:04:21.771Z,37.62
2022-08-07T15:06:52.753Z,38.01
2022-08-07T15:09:59.529Z,38.02
2022-08-07T15:15:21.398Z,37.07
2022-08-07T15:18:33.847Z,37.20
2022-08-07T15:21:58.669Z,36.85
2022-08-07T15:25:13.685Z,36.62
2022-08-07T15:27:11.207Z,37.73
2022-08-07T15:30:04.494Z,38.56
2022-08-07T15:35:18.297Z,37.33
2022-08-07T15:38:18.370Z,36.13
2022-08-07T15:43:55.879Z,36.63
2022-08-07T15:46:31.804Z,38.93
2022-08-07T15:49:14.672Z,39.31
2022-08-07T15:54:39.249Z,38.41
2022-08-07T15:57:10.816Z,38.53
2022-08-07T15:59:59.450Z,38.17
2022-08-07T16:02:38.647Z,38.42
2022-08-07T16:05:20.116Z,39.13
2022-08-07T16:08:32.439Z,39.14
2022-08-07T16:10:43.081Z,39.59
2022-08-07T16:13:39.623Z,39.72
2022-08-07T16:16:48.850Z,38.76
2022-08-07T16:19:42.591Z,37.74
2022-08-07T16:22:55.253Z,38.78
2022-08-07T16:25:54.716Z,37.27
2022-08-07T16:29:18.384Z,38.56
2022-08-07T16:31:57.222Z,39.18
2022-08-07T16:34:49.950Z,38.36
2022-08-07T16:38:06.926Z,39.29
2022-08-07T16:40:57.224Z,39.01
2022-08-07T16:44:05.887Z,37.84
2022-08-07T16:47:07.897Z,37.75
2022-08-07T16:50:27.449Z,38.04
2022-08-07T16:53:14.696Z,40.39
2022-08-07T16:56:02.708Z,39.34
2022-08-07T16:59:10.581Z,38.73
2022-08-07T17:01:57.247Z,40.48
2022-08-07T17:04:36.922Z,41.51
2022-08-07T17:07:55.776Z,42.17
2022-08-07T17:10:32.327Z,41.81
2022-08-07T17:14:17.854Z,42.98
2022-08-07T17:16:56.071Z,43.33
2022-08-07T17:20:01.571Z,43.00
2022-08-07T17:22:42.464Z,42.88
2022-08-07T17:25:47.586Z,42.25
2022-08-07T17:28:19.496Z,42.40
2022-08-07T17:31:00.698Z,42.74
2022-08-07T17:34:15.570Z,41.99
2022-08-07T17:37:00.676Z,42.33
2022-08-07T17:39:57.883Z,43.46
2022-08-07T17:42:30.159Z,42.45
2022-08-07T17:44:58.948Z,42.47
2022-08-07T17:47:38.476Z,43.39
2022-08-07T17:50:46.821Z,45.12
2022-08-07T17:53:59.574Z,46.40
2022-08-07T17:56:26.145Z,46.50
2022-08-07T17:59:03.630Z,47.23
2022-08-07T18:02:29.359Z,47.06
2022-08-07T18:06:01.716Z,46.79
2022-08-07T18:09:01.405Z,47.67
2022-08-07T18:12:16.287Z,48.08
2022-08-07T18:15:33.042Z,48.22
2022-08-07T18:18:47.600Z,48.05
2022-08-07T18:21:38.185Z,48.29
2022-08-07T18:24:08.939Z,49.17
2022-08-07T18:26:57.215Z,49.34
2022-08-07T18:30:08.032Z,49.83
2022-08-07T18:32:32.766Z,49.88
2022-08-07T18:35:02.316Z,49.69
2022-08-07T18:38:54.851Z,49.96
2022-08-07T18:40:43.915Z,50.62
2022-08-07T18:43:43.394Z,50.32
2022-08-07T18:46:37.311Z,50.40
2022-08-07T18:50:32.459Z,50.56
2022-08-07T18:52:54.434Z,51.33
2022-08-07T18:56:04.131Z,52.35
2022-08-07T18:58:59.873Z,52.77
2022-08-07T19:02:32.263Z,54.45
2022-08-07T19:04:57.513Z,53.77
2022-08-07T19:08:05.684Z,55.00
2022-08-07T19:10:51.314Z,55.80
2022-08-07T19:13:51.038Z,55.59
2022-08-07T19:17:07.644Z,55.65
2022-08-07T19:20:28.799Z,55.61
2022-08-07T19:23:18.433Z,55.64
2022-08-07T19:26:23.328Z,56.66
2022-08-07T19:30:57.762Z,57.25
2022-08-07T19:32:08.294Z,57.91
2022-08-07T19:34:34.208Z,59.06
2022-08-07T19:37:09.909Z,59.29
2022-08-07T19:39:57.907Z,59.15
2022-08-07T19:42:31.575Z,59.01
2022-08-07T19:45:08.710Z,59.09
2022-08-07T19:47:42.138Z,59.58
2022-08-07T19:50:44.023Z,59.84
2022-08-07T19:52:58.441Z,60.74
2022-08-07T19:55:56.842Z,60.57
2022-08-07T19:58:16.184Z,60.42
2022-08-07T20:00:54.055Z,60.87
2022-08-07T20:03:34.891Z,61.05
2022-08-07T20:06:04.882Z,60.96
2022-08-07T20:08:38.920Z,60.65
2022-08-07T20:11:12.223Z,61.26
2022-08-07T20:13:46.536Z,61.46
2022-08-07T20:16:34.730Z,61.70
2022-08-07T20:19:06.024Z,62.22
2022-08-07T20:21:41.640Z,62.43
2022-08-07T20:24:24.103Z,62.38
2022-08-07T20:26:59.323Z,62.47
2022-08-07T20:29:47.950Z,62.78
2022-08-07T20:32:26.610Z,62.83
2022-08-07T20:35:11.298Z,62.79
2022-08-07T20:37:58.740Z,63.15
2022-08-07T20:40:32.017Z,64.00
2022-08-07T20:43:02.800Z,63.67
2022-08-07T20:46:28.293Z,63.61
2022-08-07T20:48:28.963Z,63.35
2022-08-07T20:50:58.997Z,63.58
2022-08-07T20:54:03.729Z,63.89
2022-08-07T20:56:16.048Z,63.95
2022-08-07T20:58:49.567Z,64.54
2022-08-07T21:01:20.870Z,64.56
2022-08-07T21:04:19.905Z,64.72
2022-08-07T21:06:42.403Z,64.68
2022-08-07T21:09:17.202Z,64.52
2022-08-07T21:11:51.057Z,65.01
2022-08-07T21:14:32.611Z,65.87
2022-08-07T21:18:00.362Z,66.42
2022-08-07T21:20:04.741Z,66.38
2022-08-07T21:22:51.271Z,66.58
2022-08-07T21:25:29.749Z,66.15
2022-08-07T21:28:48.174Z,66.29
2022-08-07T21:32:10.956Z,66.79
2022-08-07T21:34:48.687Z,66.95
2022-08-07T21:37:25.802Z,66.75
2022-08-07T21:40:08.708Z,66.83
2022-08-07T21:43:04.501Z,66.91
2022-08-07T21:46:05.428Z,67.20
2022-08-07T21:48:33.630Z,67.87
2022-08-07T21:51:51.039Z,67.77
2022-08-07T21:54:45.956Z,68.00
2022-08-07T21:57:44.988Z,68.11
2022-08-07T22:00:25.148Z,68.18
2022-08-07T22:03:30.620Z,67.72
2022-08-07T22:06:06.692Z,68.07
2022-08-07T22:08:46.110Z,68.20
2022-08-07T22:11:18.072Z,68.75
2022-08-07T22:13:53.052Z,68.84
2022-08-07T22:16:42.183Z,69.22
2022-08-07T22:19:23.689Z,69.22
2022-08-07T22:22:10.776Z,69.13
2022-08-07T22:25:10.758Z,69.54
2022-08-07T22:28:08.319Z,69.53
2022-08-07T22:30:53.103Z,69.99
2022-08-07T22:33:52.584Z,70.15
2022-08-07T22:36:46.391Z,70.47
2022-08-07T22:39:35.341Z,70.55
2022-08-07T22:42:25.911Z,70.65
2022-08-07T22:44:59.689Z,70.87
2022-08-07T22:48:31.352Z,70.80
2022-08-07T22:51:04.120Z,70.91
2022-08-07T22:54:05.196Z,71.33
2022-08-07T22:56:59.106Z,71.45
2022-08-07T22:59:46.968Z,71.35
2022-08-07T23:02:34.493Z,71.37
2022-08-07T23:06:10.293Z,71.28
2022-08-07T23:08:53.049Z,71.82
2022-08-07T23:11:22.773Z,71.82
2022-08-07T23:14:19.701Z,71.77
2022-08-07T23:17:15.916Z,72.16
2022-08-07T23:20:10.019Z,72.67
2022-08-07T23:22:49.613Z,72.65
2022-08-07T23:25:57.779Z,72.41
2022-08-07T23:28:48.812Z,72.54
2022-08-07T23:34:20.773Z,72.32
2022-08-07T23:35:01.867Z,72.97
2022-08-07T23:38:01.951Z,72.88
2022-08-07T23:40:49.401Z,73.04
2022-08-07T23:43:21.016Z,72.74
2022-08-07T23:46:03.019Z,73.16
2022-08-07T23:48:47.117Z,73.16
2022-08-07T23:53:05.707Z,73.28
2022-08-07T23:54:46.288Z,73.75
2022-08-07T23:57:36.303Z,74.81
